Welcome to our new website - Welkom op onze vernieuwde website - Bienvenue sur notre nouveau site web - Willkommen auf unserer neuen Website
Check our progress frequently. Prüfen Sie unsere Fortschritte regelmäßig. Consultez notre progression fréquemment. Komt u straks nog eens terug
Het weer levert geen direct gevaar op.    Er zijn geen waarschuwingen afgegeven.

Regen radar Meer informatie rain snow radar


Bezoek ook deze websites:

Template documentation
and downloads

And another site


U vindt ons ook hier:

UK Metoffice

WeatherCloud

Weather Underground

AWEKAS



METAR rapporten vliegvelden

Warning: A non-numeric value encountered in /customers/a/f/b/meteoassenede.be/httpd.www/weather28/metar/metarDisplay.php on line 166
   
EBBR - Brussels International Airport, Belgium
Afstand tot: W 14 km
Gewijzigd: 14-04-2021 18:50
Licht bewolkt  
Licht bewolkt  
   Wind: NNO 17 km/h
Wind: NNO 17 km/h
Temperatuur: 7°C
Voelt als: 4°C
Dauwpunt: -1°C
Vochtigheid: 57%
Barometer: 1029 hPa
Bewolking: Licht bewolkt
Zicht: meer dan 10 km
Bewolking: Licht bewolkt 4000 ft
EBBR 141650Z 02009KT 9999 FEW040 07/M01 Q1029 NOSIG
EBBE - Beauvechain (Bevekom), Belgium
Afstand tot: ZZO 17 km
Gewijzigd: 14-04-2021 18:25
Gedeeltelijk bewolkt  
Gedeeltelijk bewolkt  
   Wind: NO 7 km/h
Wind: NO 7 km/h
Temperatuur: 7°C
Voelt als: 6°C
Dauwpunt: -1°C
Vochtigheid: 57%
Barometer: 1029 hPa
Bewolking: Gedeeltelijk bewolkt
Zicht: meer dan 10 km
Bewolking: Licht bewolkt 4800 ft,
Gedeeltelijk bewolkt 8000 ft
EBBE 141625Z 04004KT 9999 FEW048 SCT080 07/M01 Q1029 BLU BLU
EBDT - Schaffen, Belgium
Afstand tot: ONO 29 km
Gewijzigd: 14-04-2021 18:25
Bewolking  
Bewolking  
   Wind: NNO 11 km/h
Wind: NNO 11 km/h
Temperatuur: 8°C
Voelt als: 6°C
Dauwpunt: -2°C
Vochtigheid: 50%
Barometer: 1029 hPa
Bewolking: Bewolking
Zicht: meer dan 10 km
Bewolking: Bewolking 6000 ft
EBDT 141625Z AUTO 03006KT 9999 OVC060/// 08/M02 Q1029 BLU
EBAW - Antwerp/Deurne, Belgium
Afstand tot: NNW 38 km
Gewijzigd: 14-04-2021 18:20
Helder  
Helder  
   Wind: NNO 13 km/h
Wind: NNO 13 km/h
Temperatuur: 8°C
Voelt als: 6°C
Dauwpunt: -3°C
Vochtigheid: 46%
Barometer: 1030 hPa
Zicht: meer dan 10 km
Bewolking: Helder
EBAW 141620Z 03007KT 350V070 CAVOK 08/M03 Q1030 NOSIG
EBCI - Charleroi/Gosselies, Belgium
Afstand tot: ZZW 51 km
Gewijzigd: 14-04-2021 18:50
Regenbuien, Licht bewolkt  
Regenbuien, Licht bewolkt  
   Wind: NO 9 km/h
Wind: NO 9 km/h
Temperatuur: 7°C
Voelt als: 5°C
Dauwpunt: -4°C
Vochtigheid: 46%
Barometer: 1029 hPa
Bewolking: Licht bewolkt
Zicht: meer dan 10 km
Bewolking: Licht bewolkt 4800 ft
EBCI 141650Z 05005KT 010V080 9999 VCSH FEW048TCU 07/M04 Q1029 TEMPO 4500 -SHRA
EBLG - Bierset/Liege, Belgium
Afstand tot: OZO 60 km
Gewijzigd: 14-04-2021 18:50
Light Showers, Regen, Gedeeltelijk bewolkt  
Light Showers, Regen, Gedeeltelijk bewolkt  
   Wind: Noorden 7 km/h
Wind: Noorden 7 km/h
Temperatuur: 5°C
Voelt als: 3°C
Dauwpunt: -2°C
Vochtigheid: 61%
Barometer: 1029 hPa
Bewolking: Gedeeltelijk bewolkt
Zicht: meer dan 10 km
Bewolking: Gedeeltelijk bewolkt 3000 ft
EBLG 141650Z 01004KT 330V050 9999 -SHRA SCT030TCU 05/M02 Q1029 NOSIG

Script ontwikkeld door  Saratoga-weather.org Aangepast voor de template door  Weerstation Leuven

Apparatuur in gebruik:

Weerstation
Davis Vantage Pro2

Weerprogramma
Meteobridge

Weercomputer
TP-Link TL-MR3020

Webleverancier
One.com

Davis Vantage Pro2

Meteobridge

TP-Link TL-MR3020

One.com